createdAt,value
2018-04-14T00:02:26.215Z,95153.37
2018-04-14T00:04:54.474Z,95152.73
2018-04-14T00:07:23.504Z,95152.79
2018-04-14T00:09:51.747Z,95150.06
2018-04-14T00:12:20.009Z,95151.59
2018-04-14T00:14:48.250Z,95153.60
2018-04-14T00:17:16.514Z,95156.93
2018-04-14T00:19:44.766Z,95167.39
2018-04-14T00:22:13.043Z,95167.59
2018-04-14T00:24:41.302Z,95158.92
2018-04-14T00:27:09.549Z,95166.40
2018-04-14T00:29:37.819Z,95161.82
2018-04-14T00:32:06.062Z,95158.92
2018-04-14T00:34:34.338Z,95157.77
2018-04-14T00:37:02.603Z,95163.66
2018-04-14T00:39:30.855Z,95159.25
2018-04-14T00:41:59.143Z,95166.78
2018-04-14T00:44:27.399Z,95165.27
2018-04-14T00:46:56.415Z,95169.63
2018-04-14T00:49:24.779Z,95167.86
2018-04-14T00:51:53.048Z,95170.39
2018-04-14T00:54:22.066Z,95163.48
2018-04-14T00:56:50.315Z,95168.77
2018-04-14T00:59:19.333Z,95166.83
2018-04-14T01:01:48.355Z,95161.36
2018-04-14T01:04:16.615Z,95164.88
2018-04-14T01:06:44.880Z,95164.22
2018-04-14T01:09:13.903Z,95165.45
2018-04-14T01:11:42.166Z,95165.49
2018-04-14T01:14:11.196Z,95159.09
2018-04-14T01:16:39.450Z,95161.33
2018-04-14T01:19:08.474Z,95170.52
2018-04-14T01:21:36.722Z,95169.78
2018-04-14T01:24:05.756Z,95168.82
2018-04-14T01:26:34.014Z,95173.08
2018-04-14T01:29:02.274Z,95177.20
2018-04-14T01:31:31.289Z,95177.48
2018-04-14T01:33:59.554Z,95171.89
2018-04-14T01:36:28.554Z,95170.18
2018-04-14T01:38:57.583Z,95173.59
2018-04-14T01:41:25.835Z,95175.63
2018-04-14T01:43:54.850Z,95177.03
2018-04-14T01:46:23.318Z,95177.81
2018-04-14T01:48:51.579Z,95183.73
2018-04-14T01:51:19.823Z,95199.16
2018-04-14T01:53:49.336Z,95193.64
2018-04-14T01:56:17.586Z,95190.39
2018-04-14T01:58:45.856Z,95192.45
2018-04-14T02:01:14.103Z,95192.36
2018-04-14T02:03:42.351Z,95196.08
2018-04-14T02:06:10.616Z,95192.94
2018-04-14T02:08:38.859Z,95190.22
2018-04-14T02:11:07.887Z,95190.53
2018-04-14T02:13:36.148Z,95185.09
2018-04-14T02:16:06.424Z,95190.09
2018-04-14T02:18:34.687Z,95187.40
2018-04-14T02:21:02.972Z,95191.56
2018-04-14T02:23:31.227Z,95198.27
2018-04-14T02:25:59.488Z,95194.80
2018-04-14T02:28:28.504Z,95196.14
2018-04-14T02:30:56.766Z,95198.99
2018-04-14T02:33:25.789Z,95195.44
2018-04-14T02:35:54.050Z,95193.09
2018-04-14T02:38:23.065Z,95196.45
2018-04-14T02:40:51.327Z,95193.55
2018-04-14T02:43:20.356Z,95195.56
2018-04-14T02:45:48.610Z,95197.38
2018-04-14T02:48:16.878Z,95189.80
2018-04-14T02:50:45.887Z,95193.13
2018-04-14T02:53:14.157Z,95193.67
2018-04-14T02:55:43.172Z,95198.30
2018-04-14T02:58:11.446Z,95196.63
2018-04-14T03:00:40.458Z,95195.98
2018-04-14T03:03:08.712Z,95202.52
2018-04-14T03:05:37.718Z,95197.91
2018-04-14T03:08:06.757Z,95204.73
2018-04-14T03:10:35.015Z,95205.11
2018-04-14T03:13:03.275Z,95207.37
2018-04-14T03:15:32.298Z,95202.97
2018-04-14T03:18:00.555Z,95200.08
2018-04-14T03:20:29.572Z,95202.42
2018-04-14T03:22:57.826Z,95206.67
2018-04-14T03:25:26.852Z,95207.59
2018-04-14T03:27:55.110Z,95209.45
2018-04-14T03:30:24.120Z,95213.98
2018-04-14T03:32:52.380Z,95213.95
2018-04-14T03:35:21.399Z,95216.41
2018-04-14T03:37:49.644Z,95214.97
2018-04-14T03:40:17.914Z,95222.22
2018-04-14T03:42:46.158Z,95227.02
2018-04-14T03:45:14.423Z,95224.56
2018-04-14T03:47:42.676Z,95219.84
2018-04-14T03:50:11.704Z,95226.16
2018-04-14T03:52:39.950Z,95222.48
2018-04-14T03:55:08.975Z,95221.70
2018-04-14T03:57:37.219Z,95226.45
2018-04-14T04:00:05.474Z,95223.95
2018-04-14T04:02:34.483Z,95220.85
2018-04-14T04:05:02.756Z,95223.71
2018-04-14T04:07:30.994Z,95224.91
2018-04-14T04:09:59.263Z,95228.17
2018-04-14T04:12:28.771Z,95229.73
2018-04-14T04:14:57.795Z,95224.52
2018-04-14T04:17:26.098Z,95226.34
2018-04-14T04:20:12.243Z,95227.22
2018-04-14T04:22:58.507Z,95231.14
2018-04-14T04:25:41.672Z,95228.91
2018-04-14T04:28:09.983Z,95240.92
2018-04-14T04:30:40.259Z,95242.25
2018-04-14T04:33:08.543Z,95241.70
2018-04-14T04:35:37.574Z,95247.93
2018-04-14T04:38:06.523Z,95249.47
2018-04-14T04:40:35.548Z,95253.92
2018-04-14T04:43:03.802Z,95258.83
2018-04-14T04:45:32.823Z,95256.39
2018-04-14T04:48:01.087Z,95258.56
2018-04-14T04:50:30.110Z,95265.19
2018-04-14T04:52:58.379Z,95269.92
2018-04-14T04:55:26.640Z,95276.94
2018-04-14T04:57:55.652Z,95275.56
2018-04-14T05:00:23.924Z,95272.66
2018-04-14T05:02:52.946Z,95274.48
2018-04-14T05:05:21.194Z,95280.64
2018-04-14T05:07:50.411Z,95278.38
2018-04-14T05:10:19.503Z,95287.23
2018-04-14T05:12:48.547Z,95296.08
2018-04-14T05:15:17.527Z,95290.63
2018-04-14T05:17:45.793Z,95287.48
2018-04-14T05:20:14.035Z,95289.99
2018-04-14T05:22:42.315Z,95289.89
2018-04-14T05:25:10.594Z,95287.66
2018-04-14T05:27:38.852Z,95293.02
2018-04-14T05:30:07.103Z,95292.41
2018-04-14T05:32:35.462Z,95293.23
2018-04-14T05:35:04.473Z,95287.00
2018-04-14T05:37:32.977Z,95284.48
2018-04-14T05:40:01.219Z,95279.15
2018-04-14T05:42:30.328Z,95275.34
2018-04-14T05:45:00.670Z,95282.13
2018-04-14T05:47:28.939Z,95279.14
2018-04-14T05:49:57.943Z,95283.58
2018-04-14T05:52:26.195Z,95280.64
2018-04-14T05:54:54.442Z,95282.96
2018-04-14T05:57:22.695Z,95276.56
2018-04-14T05:59:50.951Z,95285.25
2018-04-14T06:02:19.969Z,95276.95
2018-04-14T06:04:48.234Z,95274.73
2018-04-14T06:07:16.485Z,95279.32
2018-04-14T06:09:45.510Z,95279.84
2018-04-14T06:12:13.775Z,95278.28
2018-04-14T06:14:42.036Z,95280.12
2018-04-14T06:17:10.284Z,95284.30
2018-04-14T06:19:38.552Z,95284.75
2018-04-14T06:22:06.826Z,95282.07
2018-04-14T06:24:35.824Z,95291.96
2018-04-14T06:27:04.090Z,95286.17
2018-04-14T06:29:32.361Z,95294.92
2018-04-14T06:32:01.372Z,95293.42
2018-04-14T06:34:29.638Z,95297.58
2018-04-14T06:36:59.890Z,95299.27
2018-04-14T06:39:28.150Z,95299.04
2018-04-14T06:41:57.171Z,95300.67
2018-04-14T06:44:25.550Z,95301.66
2018-04-14T06:46:53.794Z,95294.75
2018-04-14T06:49:22.043Z,95292.01
2018-04-14T06:51:50.319Z,95297.11
2018-04-14T06:54:18.564Z,95290.34
2018-04-14T06:56:46.822Z,95296.31
2018-04-14T06:59:16.764Z,95296.33
2018-04-14T07:01:45.025Z,95292.34
2018-04-14T07:04:14.037Z,95293.06
2018-04-14T07:06:42.306Z,95292.89
2018-04-14T07:09:11.325Z,95296.34
2018-04-14T07:11:39.607Z,95302.76
2018-04-14T07:14:07.851Z,95303.25
2018-04-14T07:16:36.111Z,95309.38
2018-04-14T07:19:05.559Z,95314.52
2018-04-14T07:21:33.826Z,95315.63
2018-04-14T07:24:02.842Z,95316.38
2018-04-14T07:26:31.111Z,95317.05
2018-04-14T07:29:00.131Z,95317.72
2018-04-14T07:31:28.396Z,95318.81
2018-04-14T07:33:57.499Z,95320.69
2018-04-14T07:36:25.762Z,95323.66
2018-04-14T07:38:54.788Z,95322.55
2018-04-14T07:41:23.056Z,95322.45
2018-04-14T07:43:52.080Z,95332.00
2018-04-14T07:46:20.348Z,95338.48
2018-04-14T07:48:48.616Z,95334.91
2018-04-14T07:51:16.885Z,95331.42
2018-04-14T07:53:45.908Z,95331.73
2018-04-14T07:56:14.174Z,95331.36
2018-04-14T07:58:42.423Z,95337.33
2018-04-14T08:01:11.091Z,95331.00
2018-04-14T08:03:39.351Z,95338.28
2018-04-14T08:06:07.618Z,95337.66
2018-04-14T08:08:35.872Z,95335.77
2018-04-14T08:11:05.044Z,95334.67
2018-04-14T08:13:33.291Z,95335.83
2018-04-14T08:16:01.545Z,95333.73
2018-04-14T08:18:29.811Z,95338.50
2018-04-14T08:20:59.139Z,95332.23
2018-04-14T08:23:27.420Z,95344.09
2018-04-14T08:25:55.790Z,95332.43
2018-04-14T08:28:24.047Z,95336.39
2018-04-14T08:30:52.305Z,95339.14
2018-04-14T08:33:20.568Z,95340.03
2018-04-14T08:35:48.813Z,95339.77
2018-04-14T08:38:17.078Z,95341.16
2018-04-14T08:40:46.107Z,95339.42
2018-04-14T08:43:14.379Z,95332.97
2018-04-14T08:45:43.383Z,95331.50
2018-04-14T08:48:11.634Z,95332.13
2018-04-14T08:50:40.661Z,95328.20
2018-04-14T08:53:08.924Z,95332.27
2018-04-14T08:55:37.178Z,95329.41
2018-04-14T08:58:05.454Z,95324.44
2018-04-14T09:00:33.703Z,95316.56
2018-04-14T09:03:02.724Z,95315.34
2018-04-14T09:05:30.988Z,95312.62
2018-04-14T09:07:59.236Z,95313.80
2018-04-14T09:10:27.502Z,95309.65
2018-04-14T09:12:55.911Z,95306.57
2018-04-14T09:15:24.186Z,95301.14
2018-04-14T09:17:52.429Z,95301.52
2018-04-14T09:20:20.682Z,95299.72
2018-04-14T09:22:48.947Z,95304.32
2018-04-14T09:25:17.214Z,95309.16
2018-04-14T09:27:45.466Z,95305.27
2018-04-14T09:30:14.487Z,95301.20
2018-04-14T09:32:42.734Z,95298.09
2018-04-14T09:35:11.769Z,95294.37
2018-04-14T09:37:40.012Z,95286.78
2018-04-14T09:40:09.052Z,95289.78
2018-04-14T09:42:37.310Z,95288.78
2018-04-14T09:45:05.572Z,95288.14
2018-04-14T09:47:34.594Z,95281.90
2018-04-14T09:50:02.860Z,95293.55
2018-04-14T09:52:31.875Z,95285.09
2018-04-14T09:55:00.134Z,95283.71
2018-04-14T09:57:29.154Z,95280.38
2018-04-14T09:59:57.419Z,95287.00
2018-04-14T10:02:26.450Z,95281.72
2018-04-14T10:04:54.700Z,95281.38
2018-04-14T10:07:22.983Z,95277.34
2018-04-14T10:09:51.993Z,95279.20
2018-04-14T10:12:20.262Z,95282.03
2018-04-14T10:14:49.295Z,95275.44
2018-04-14T10:17:17.582Z,95281.59
2018-04-14T10:19:45.807Z,95270.60
2018-04-14T10:22:14.840Z,95272.61
2018-04-14T10:24:43.087Z,95275.80
2018-04-14T10:27:12.124Z,95271.74
2018-04-14T10:29:40.375Z,95262.84
2018-04-14T10:32:08.639Z,95271.20
2018-04-14T10:34:37.665Z,95268.98
2018-04-14T10:37:06.018Z,95266.84
2018-04-14T10:39:35.040Z,95271.50
2018-04-14T10:42:03.312Z,95267.05
2018-04-14T10:44:31.570Z,95259.93
2018-04-14T10:47:01.077Z,95260.03
2018-04-14T10:49:29.341Z,95257.19
2018-04-14T10:51:57.589Z,95249.88
2018-04-14T10:54:27.870Z,95250.34
2018-04-14T10:56:56.127Z,95249.02
2018-04-14T10:59:24.392Z,95250.23
2018-04-14T11:01:52.659Z,95249.50
2018-04-14T11:04:20.913Z,95256.48
2018-04-14T11:06:49.163Z,95243.06
2018-04-14T11:09:17.449Z,95240.56
2018-04-14T11:11:45.710Z,95245.02
2018-04-14T11:14:13.988Z,95237.56
2018-04-14T11:16:42.254Z,95242.45
2018-04-14T11:19:10.522Z,95239.66
2018-04-14T11:21:38.791Z,95239.08
2018-04-14T11:24:07.055Z,95230.66
2018-04-14T11:26:35.311Z,95244.73
2018-04-14T11:29:03.588Z,95238.98
2018-04-14T11:31:31.843Z,95230.63
2018-04-14T11:34:00.091Z,95227.64
2018-04-14T11:36:29.190Z,95226.34
2018-04-14T11:38:58.122Z,95219.68
2018-04-14T11:41:26.375Z,95223.22
2018-04-14T11:43:54.647Z,95216.41
2018-04-14T11:46:22.906Z,95215.52
2018-04-14T11:48:51.924Z,95215.97
2018-04-14T11:51:20.191Z,95211.41
2018-04-14T11:53:48.443Z,95214.01
2018-04-14T11:56:16.711Z,95209.39
2018-04-14T11:58:45.068Z,95207.23
2018-04-14T12:01:13.343Z,95205.83
2018-04-14T12:03:41.653Z,95203.46
2018-04-14T12:06:09.871Z,95208.05
2018-04-14T12:08:38.897Z,95210.49
2018-04-14T12:11:07.163Z,95210.00
2018-04-14T12:13:35.411Z,95208.78
2018-04-14T12:16:04.445Z,95208.47
2018-04-14T12:18:32.696Z,95205.53
2018-04-14T12:21:01.721Z,95208.27
2018-04-14T12:23:29.973Z,95196.86
2018-04-14T12:25:59.139Z,95208.22
2018-04-14T12:28:27.447Z,95203.46
2018-04-14T12:30:55.647Z,95207.19
2018-04-14T12:33:24.679Z,95196.91
2018-04-14T12:35:52.941Z,95194.24
2018-04-14T12:38:21.214Z,95196.92
2018-04-14T12:40:49.481Z,95191.28
2018-04-14T12:43:18.496Z,95203.66
2018-04-14T12:45:46.759Z,95192.49
2018-04-14T12:48:15.783Z,95191.31
2018-04-14T12:50:44.026Z,95181.69
2018-04-14T12:53:13.051Z,95175.72
2018-04-14T12:55:41.317Z,95173.03
2018-04-14T12:58:10.349Z,95172.44
2018-04-14T13:00:38.599Z,95172.86
2018-04-14T13:03:07.615Z,95160.73
2018-04-14T13:05:35.999Z,95164.79
2018-04-14T13:08:04.267Z,95155.35
2018-04-14T13:10:32.575Z,95162.72
2018-04-14T13:13:00.840Z,95159.84
2018-04-14T13:15:29.120Z,95155.04
2018-04-14T13:17:57.376Z,95151.53
2018-04-14T13:20:26.387Z,95148.98
2018-04-14T13:22:54.658Z,95146.34
2018-04-14T13:25:23.696Z,95141.28
2018-04-14T13:27:51.961Z,95144.94
2018-04-14T13:30:20.330Z,95135.96
2018-04-14T13:32:48.915Z,95141.17
2018-04-14T13:35:17.153Z,95134.34
2018-04-14T13:37:45.407Z,95139.38
2018-04-14T13:40:13.669Z,95131.13
2018-04-14T13:42:41.924Z,95128.84
2018-04-14T13:45:10.953Z,95125.20
2018-04-14T13:47:39.216Z,95115.72
2018-04-14T13:50:07.491Z,95118.77
2018-04-14T13:52:37.768Z,95108.00
2018-04-14T13:55:06.023Z,95111.02
2018-04-14T13:57:34.290Z,95120.09
2018-04-14T14:00:02.544Z,95122.41
2018-04-14T14:02:31.562Z,95116.49
2018-04-14T14:04:59.827Z,95116.14
2018-04-14T14:07:28.848Z,95113.48
2018-04-14T14:09:57.099Z,95105.63
2018-04-14T14:12:26.135Z,95101.13
2018-04-14T14:14:54.394Z,95108.53
2018-04-14T14:17:22.665Z,95115.45
2018-04-14T14:19:51.687Z,95107.03
2018-04-14T14:22:19.943Z,95107.62
2018-04-14T14:24:48.967Z,95100.82
2018-04-14T14:27:17.219Z,95104.45
2018-04-14T14:29:46.241Z,95111.31
2018-04-14T14:32:14.493Z,95103.90
2018-04-14T14:34:43.318Z,95100.30
2018-04-14T14:37:11.572Z,95102.56
2018-04-14T14:39:40.606Z,95106.14
2018-04-14T14:42:08.859Z,95105.47
2018-04-14T14:44:37.263Z,95105.75
2018-04-14T14:47:05.523Z,95103.03
2018-04-14T14:49:34.547Z,95104.41
2018-04-14T14:52:02.799Z,95107.69
2018-04-14T14:54:31.828Z,95108.83
2018-04-14T14:57:00.075Z,95114.16
2018-04-14T14:59:29.107Z,95114.56
2018-04-14T15:01:57.355Z,95117.00
2018-04-14T15:04:25.654Z,95119.44
2018-04-14T15:06:54.567Z,95110.92
2018-04-14T15:09:22.837Z,95112.32
2018-04-14T15:11:51.095Z,95124.28
2018-04-14T15:14:19.358Z,95117.13
2018-04-14T15:16:47.990Z,95115.98
2018-04-14T15:19:16.243Z,95113.61
2018-04-14T15:21:45.260Z,95109.31
2018-04-14T15:24:13.533Z,95110.45
2018-04-14T15:26:41.779Z,95108.23
2018-04-14T15:29:10.026Z,95116.86
2018-04-14T15:31:38.404Z,95106.54
2018-04-14T15:34:06.653Z,95107.12
2018-04-14T15:36:34.907Z,95101.77
2018-04-14T15:39:03.935Z,95104.46
2018-04-14T15:41:32.188Z,95089.94
2018-04-14T15:44:01.212Z,95100.17
2018-04-14T15:46:29.479Z,95089.30
2018-04-14T15:48:57.897Z,95098.67
2018-04-14T15:51:26.142Z,95096.30
2018-04-14T15:53:54.395Z,95087.45
2018-04-14T15:56:22.659Z,95078.30
2018-04-14T15:58:50.918Z,95072.34
2018-04-14T16:01:19.183Z,95052.27
2018-04-14T16:03:47.493Z,95060.66
2018-04-14T16:06:16.467Z,95056.07
2018-04-14T16:08:44.719Z,95050.84
2018-04-14T16:11:13.795Z,95048.28
2018-04-14T16:13:42.000Z,95057.19
2018-04-14T16:16:10.262Z,95057.88
2018-04-14T16:18:40.530Z,95057.88
2018-04-14T16:21:08.784Z,95057.41
2018-04-14T16:23:37.865Z,95058.38
2018-04-14T16:26:06.076Z,95060.80
2018-04-14T16:28:34.344Z,95062.95
2018-04-14T16:31:03.360Z,95054.55
2018-04-14T16:33:31.622Z,95055.20
2018-04-14T16:36:00.723Z,95050.97
2018-04-14T16:38:29.869Z,95048.69
2018-04-14T16:40:58.121Z,95057.19
2018-04-14T16:43:26.363Z,95055.06
2018-04-14T16:45:54.623Z,95055.88
2018-04-14T16:48:22.896Z,95048.28
2018-04-14T16:50:51.156Z,95049.78
2018-04-14T16:53:19.416Z,95050.23
2018-04-14T16:55:47.804Z,95044.14
2018-04-14T16:58:16.060Z,95050.20
2018-04-14T17:00:45.083Z,95047.23
2018-04-14T17:03:13.333Z,95050.75
2018-04-14T17:05:42.495Z,95041.83
2018-04-14T17:08:10.746Z,95035.36
2018-04-14T17:10:39.000Z,95035.93
2018-04-14T17:13:08.027Z,95044.66
2018-04-14T17:15:36.286Z,95049.27
2018-04-14T17:18:04.535Z,95047.88
2018-04-14T17:20:32.798Z,95046.18
2018-04-14T17:23:01.052Z,95045.38
2018-04-14T17:25:29.314Z,95043.77
2018-04-14T17:27:57.569Z,95036.95
2018-04-14T17:30:25.831Z,95033.99
2018-04-14T17:32:54.087Z,95036.58
2018-04-14T17:35:22.430Z,95040.94
2018-04-14T17:37:51.450Z,95044.38
2018-04-14T17:40:19.713Z,95043.32
2018-04-14T17:42:47.965Z,95041.09
2018-04-14T17:45:16.231Z,95036.63
2018-04-14T17:47:44.480Z,95039.95
2018-04-14T17:50:12.750Z,95035.27
2018-04-14T17:52:41.016Z,95034.20
2018-04-14T17:55:09.264Z,95038.23
2018-04-14T17:57:37.527Z,95033.84
2018-04-14T18:00:05.789Z,95033.05
2018-04-14T18:02:34.059Z,95032.46
2018-04-14T18:05:02.289Z,95026.72
2018-04-14T18:07:30.543Z,95032.20
2018-04-14T18:09:58.796Z,95026.67
2018-04-14T18:12:27.068Z,95031.97
2018-04-14T18:14:55.318Z,95036.55
2018-04-14T18:17:24.407Z,95037.84
2018-04-14T18:19:52.599Z,95041.28
2018-04-14T18:22:21.624Z,95046.12
2018-04-14T18:24:50.831Z,95046.23
2018-04-14T18:27:19.092Z,95050.76
2018-04-14T18:29:48.123Z,95050.12
2018-04-14T18:32:16.370Z,95055.77
2018-04-14T18:34:45.279Z,95049.39
2018-04-14T18:37:13.534Z,95043.14
2018-04-14T18:39:42.545Z,95049.33
2018-04-14T18:42:10.910Z,95052.78
2018-04-14T18:44:39.937Z,95052.73
2018-04-14T18:47:08.178Z,95055.23
2018-04-14T18:49:36.443Z,95053.51
2018-04-14T18:52:04.702Z,95054.03
2018-04-14T18:54:32.959Z,95054.64
2018-04-14T18:57:01.244Z,95055.48
2018-04-14T18:59:29.514Z,95053.01
2018-04-14T19:01:57.760Z,95048.56
2018-04-14T19:04:26.018Z,95048.11
2018-04-14T19:06:54.281Z,95048.20
2018-04-14T19:09:22.542Z,95044.42
2018-04-14T19:11:50.800Z,95051.48
2018-04-14T19:14:19.824Z,95052.08
2018-04-14T19:16:49.049Z,95053.53
2018-04-14T19:19:17.303Z,95057.81
2018-04-14T19:21:45.581Z,95055.88
2018-04-14T19:24:13.844Z,95059.94
2018-04-14T19:26:42.856Z,95054.62
2018-04-14T19:29:11.121Z,95050.70
2018-04-14T19:31:40.224Z,95051.30
2018-04-14T19:34:08.502Z,95050.16
2018-04-14T19:36:37.607Z,95049.40
2018-04-14T19:39:06.567Z,95046.16
2018-04-14T19:41:34.824Z,95045.75
2018-04-14T19:44:03.091Z,95048.93
2018-04-14T19:46:32.104Z,95042.92
2018-04-14T19:49:00.366Z,95045.86
2018-04-14T19:51:28.610Z,95048.61
2018-04-14T19:53:57.636Z,95050.53
2018-04-14T19:56:25.945Z,95048.52
2018-04-14T19:58:54.903Z,95050.84
2018-04-14T20:01:23.166Z,95052.31
2018-04-14T20:03:52.189Z,95051.16
2018-04-14T20:06:20.456Z,95048.48
2018-04-14T20:08:49.161Z,95050.62
2018-04-14T20:11:17.423Z,95051.55
2018-04-14T20:13:46.431Z,95054.35
2018-04-14T20:16:14.693Z,95047.08
2018-04-14T20:18:43.702Z,95043.50
2018-04-14T20:21:11.950Z,95045.75
2018-04-14T20:23:40.195Z,95045.50
2018-04-14T20:26:08.453Z,95043.72
2018-04-14T20:28:36.692Z,95048.19
2018-04-14T20:31:04.951Z,95049.94
2018-04-14T20:33:33.183Z,95053.77
2018-04-14T20:36:01.435Z,95047.72
2018-04-14T20:38:29.687Z,95046.80
2018-04-14T20:40:58.569Z,95041.80
2018-04-14T20:43:27.526Z,95049.48
2018-04-14T20:45:56.554Z,95046.61
2018-04-14T20:48:24.800Z,95053.08
2018-04-14T20:50:53.822Z,95057.99
2018-04-14T20:53:22.071Z,95053.30
2018-04-14T20:55:51.082Z,95051.01
2018-04-14T20:58:20.106Z,95046.55
2018-04-14T21:00:48.346Z,95035.19
2018-04-14T21:03:17.376Z,95033.28
2018-04-14T21:05:45.661Z,95029.91
2018-04-14T21:08:13.910Z,95037.49
2018-04-14T21:10:42.914Z,95037.13
2018-04-14T21:13:12.529Z,95033.83
2018-04-14T21:15:40.784Z,95027.84
2018-04-14T21:18:09.035Z,95030.09
2018-04-14T21:20:37.286Z,95023.94
2018-04-14T21:23:05.545Z,95019.13
2018-04-14T21:25:34.575Z,95021.69
2018-04-14T21:28:02.822Z,95026.23
2018-04-14T21:30:31.944Z,95025.58
2018-04-14T21:33:00.203Z,95020.45
2018-04-14T21:35:29.210Z,95014.46
2018-04-14T21:37:57.471Z,95013.05
2018-04-14T21:40:26.482Z,95015.72
2018-04-14T21:42:55.495Z,95009.22
2018-04-14T21:45:23.734Z,95013.46
2018-04-14T21:47:52.018Z,95002.48
2018-04-14T21:50:20.267Z,95001.95
2018-04-14T21:52:48.523Z,94996.09
2018-04-14T21:55:18.435Z,94995.63
2018-04-14T22:00:21.947Z,94992.49
2018-04-14T22:02:50.210Z,94990.48
2018-04-14T22:05:19.323Z,94987.59
2018-04-14T22:07:47.558Z,94986.51
2018-04-14T22:10:15.815Z,94986.44
2018-04-14T22:12:44.070Z,94981.24
2018-04-14T22:15:13.087Z,94978.20
2018-04-14T22:17:41.322Z,94981.01
2018-04-14T22:20:10.674Z,94981.61
2018-04-14T22:22:39.027Z,94973.58
2018-04-14T22:25:08.043Z,94965.06
2018-04-14T22:27:36.282Z,94959.84
2018-04-14T22:30:04.592Z,94965.30
2018-04-14T22:32:32.836Z,94964.34
2018-04-14T22:35:02.596Z,94964.97
2018-04-14T22:37:30.831Z,94955.67
2018-04-14T22:39:59.138Z,94960.63
2018-04-14T22:42:27.379Z,94949.83
2018-04-14T22:44:56.627Z,94951.37
2018-04-14T22:47:24.877Z,94957.39
2018-04-14T22:49:53.136Z,94954.31
2018-04-14T22:52:21.464Z,94951.94
2018-04-14T22:54:50.802Z,94952.63
2018-04-14T22:57:19.051Z,94940.81
2018-04-14T22:59:48.067Z,94951.66
2018-04-14T23:02:16.313Z,94942.11
2018-04-14T23:04:45.336Z,94937.54
2018-04-14T23:07:13.570Z,94935.52
2018-04-14T23:09:41.823Z,94936.70
2018-04-14T23:12:10.078Z,94928.98
2018-04-14T23:14:38.319Z,94918.80
2018-04-14T23:17:06.576Z,94927.47
2018-04-14T23:19:34.824Z,94928.84
2018-04-14T23:22:03.084Z,94915.60
2018-04-14T23:24:32.101Z,94916.87
2018-04-14T23:27:00.348Z,94910.02
2018-04-14T23:29:29.354Z,94904.53
2018-04-14T23:31:57.760Z,94894.72
2018-04-14T23:34:25.995Z,94887.26
2018-04-14T23:36:54.484Z,94881.95
2018-04-14T23:39:22.727Z,94887.36
2018-04-14T23:41:50.968Z,94878.89
2018-04-14T23:44:19.987Z,94882.41
2018-04-14T23:46:48.243Z,94874.61
2018-04-14T23:49:17.337Z,94872.58
2018-04-14T23:51:46.369Z,94875.66
2018-04-14T23:54:14.727Z,94872.64
2018-04-14T23:56:43.742Z,94868.98
2018-04-14T23:59:11.982Z,94867.62
